Time;durP1;ratioP1;P1;durP2;ratioP2;P2;SDS_P1;SDS_P2;PMS_P1;PMS_P2;Temp;Humidity;BMP_temperature;BMP_pressure;BME280_temperature;BME280_humidity;BME280_pressure;Samples;Min_cycle;Max_cycle;Signal;HPM_P1;HPM_P2
2023/05/30 00:00:53;;;;;;;34.15;19.50;;;19.40;99.90;;;;;;5092883;28;20035;-76
2023/05/30 00:03:57;;;;;;;26.63;19.42;;;19.30;99.90;;;;;;5092842;28;20062;-74
2023/05/30 00:07:01;;;;;;;31.95;19.33;;;19.20;99.90;;;;;;5092801;28;20051;-74
2023/05/30 00:10:05;;;;;;;36.70;19.48;;;19.20;99.90;;;;;;5092477;28;20518;-75
2023/05/30 00:13:09;;;;;;;29.55;18.98;;;19.30;99.90;;;;;;5080075;28;20051;-76
2023/05/30 00:16:14;;;;;;;28.33;17.13;;;19.30;99.90;;;;;;5091819;28;20047;-76
2023/05/30 00:19:19;;;;;;;29.27;17.27;;;19.30;99.90;;;;;;5092596;28;20039;-75
2023/05/30 00:22:24;;;;;;;25.58;15.30;;;19.30;99.90;;;;;;5092489;28;20055;-76
2023/05/30 00:25:28;;;;;;;28.15;15.65;;;19.40;99.90;;;;;;5080018;28;20066;-74
2023/05/30 00:28:31;;;;;;;23.95;12.88;;;19.50;99.90;;;;;;5092425;28;20475;-75
2023/05/30 00:31:36;;;;;;;24.85;13.15;;;19.50;99.90;;;;;;5079816;28;20614;-74
2023/05/30 00:34:40;;;;;;;21.35;12.52;;;19.40;99.90;;;;;;5079800;28;20043;-75
2023/05/30 00:37:44;;;;;;;23.88;13.27;;;19.40;99.90;;;;;;5092150;28;20051;-74
2023/05/30 00:40:49;;;;;;;18.58;12.35;;;19.30;99.90;;;;;;5091358;28;20615;-75
2023/05/30 00:43:53;;;;;;;19.13;12.85;;;19.20;99.90;;;;;;5079337;28;20043;-75
2023/05/30 00:46:58;;;;;;;24.80;13.32;;;19.10;99.90;;;;;;5091698;28;20043;-74
2023/05/30 00:50:05;;;;;;;21.77;13.40;;;19.00;99.90;;;;;;5079260;28;20055;-75
2023/05/30 00:53:10;;;;;;;21.58;13.57;;;19.00;99.90;;;;;;5091948;28;20043;-75
2023/05/30 00:56:15;;;;;;;24.33;13.50;;;19.00;99.90;;;;;;5079255;28;20046;-77
2023/05/30 00:59:20;;;;;;;20.42;13.82;;;19.10;99.90;;;;;;5091576;28;20043;-74
2023/05/30 01:02:24;;;;;;;23.63;15.05;;;19.10;99.90;;;;;;5091803;28;20043;-75
2023/05/30 01:05:28;;;;;;;26.83;13.43;;;19.20;99.90;;;;;;5091643;28;20054;-76
2023/05/30 01:08:32;;;;;;;22.67;14.18;;;19.20;99.90;;;;;;5078846;28;20047;-76
2023/05/30 01:11:59;;;;;;;21.52;13.82;;;19.20;99.90;;;;;;5079092;28;20071;-76
2023/05/30 01:15:20;;;;;;;21.98;14.00;;;19.20;99.90;;;;;;5078641;28;20043;-76
2023/05/30 01:18:46;;;;;;;23.38;14.15;;;19.20;99.90;;;;;;5079156;28;20210;-76
2023/05/30 01:22:03;;;;;;;22.13;13.77;;;19.10;99.90;;;;;;5091367;28;20051;-75
2023/05/30 01:25:29;;;;;;;28.63;13.80;;;19.10;99.90;;;;;;5091323;28;20047;-75
2023/05/30 01:28:37;;;;;;;26.00;14.13;;;19.00;99.90;;;;;;5078694;28;20055;-75
2023/05/30 01:31:42;;;;;;;24.20;14.65;;;19.00;99.90;;;;;;5078755;28;20043;-75
2023/05/30 01:34:48;;;;;;;22.83;14.48;;;19.00;99.90;;;;;;5090857;28;20035;-75
2023/05/30 01:37:52;;;;;;;24.42;13.68;;;19.00;99.90;;;;;;5078495;28;20047;-74
2023/05/30 01:40:58;;;;;;;22.83;14.25;;;18.90;99.90;;;;;;5090829;28;20499;-76
2023/05/30 01:44:51;;;;;;;23.95;13.55;;;18.90;99.90;;;;;;5078672;28;20043;-75
2023/05/30 01:48:06;;;;;;;22.27;13.77;;;18.90;99.90;;;;;;5082124;28;20218;-75
2023/05/30 01:51:15;;;;;;;25.10;14.00;;;18.90;99.90;;;;;;5091105;28;20059;-76
2023/05/30 01:54:20;;;;;;;28.50;14.38;;;18.80;99.90;;;;;;5090612;28;20043;-76
2023/05/30 01:57:27;;;;;;;25.58;14.50;;;18.80;99.90;;;;;;5078193;28;20043;-74
2023/05/30 02:00:32;;;;;;;20.40;13.48;;;18.80;99.90;;;;;;5078336;28;20103;-75
2023/05/30 02:03:36;;;;;;;24.08;14.55;;;18.80;99.90;;;;;;5090782;28;20530;-75
2023/05/30 02:06:40;;;;;;;25.58;14.68;;;18.80;99.90;;;;;;5078269;28;20491;-74
2023/05/30 02:09:44;;;;;;;19.55;14.25;;;18.70;99.90;;;;;;5078117;28;20075;-75
2023/05/30 02:12:49;;;;;;;24.98;14.35;;;18.70;99.90;;;;;;5078031;28;20039;-76
2023/05/30 02:15:53;;;;;;;19.50;14.23;;;18.70;99.90;;;;;;5078414;28;20051;-75
2023/05/30 02:18:58;;;;;;;27.77;15.35;;;18.60;99.90;;;;;;5078107;28;20047;-74
2023/05/30 02:22:02;;;;;;;25.65;14.20;;;18.50;99.90;;;;;;5090851;28;20407;-75
2023/05/30 02:25:06;;;;;;;29.88;15.32;;;18.50;99.90;;;;;;5090426;28;20150;-75
2023/05/30 02:28:10;;;;;;;28.33;14.68;;;18.50;99.90;;;;;;5090666;28;20043;-75
2023/05/30 02:31:15;;;;;;;30.40;15.80;;;18.60;99.90;;;;;;5078065;28;20051;-75
2023/05/30 02:34:19;;;;;;;30.73;14.13;;;18.60;99.90;;;;;;5090531;28;20047;-76
2023/05/30 02:37:22;;;;;;;25.98;15.52;;;18.70;99.90;;;;;;5077978;28;20043;-76
2023/05/30 02:40:27;;;;;;;26.98;14.85;;;18.70;99.90;;;;;;5080613;28;20035;-75
2023/05/30 02:43:31;;;;;;;21.58;14.50;;;18.70;99.90;;;;;;5081654;28;20043;-75
2023/05/30 02:46:35;;;;;;;23.75;13.52;;;18.70;99.90;;;;;;5081995;28;20039;-75
2023/05/30 02:49:39;;;;;;;23.23;13.27;;;18.70;99.90;;;;;;5081691;28;20499;-75
2023/05/30 02:52:43;;;;;;;21.38;13.25;;;18.60;99.90;;;;;;5081852;28;20047;-76
2023/05/30 02:55:48;;;;;;;22.58;13.05;;;18.60;99.90;;;;;;5081636;28;20055;-76
2023/05/30 02:59:11;;;;;;;20.00;12.30;;;18.60;99.90;;;;;;5093979;28;20534;-75
2023/05/30 03:02:35;;;;;;;26.20;12.85;;;18.60;99.90;;;;;;5094909;28;20062;-74
2023/05/30 03:05:46;;;;;;;21.90;13.23;;;18.60;99.90;;;;;;5081392;28;20048;-76
2023/05/30 03:09:00;;;;;;;16.73;12.93;;;18.60;99.90;;;;;;5069932;28;20043;-75
2023/05/30 03:12:05;;;;;;;24.23;12.90;;;18.50;99.90;;;;;;5081176;28;20051;-76
2023/05/30 03:15:09;;;;;;;21.10;12.82;;;18.40;99.90;;;;;;5081309;28;20376;-75
2023/05/30 03:18:13;;;;;;;23.15;13.40;;;18.40;99.90;;;;;;5081356;28;20062;-76
2023/05/30 03:21:17;;;;;;;22.52;13.30;;;18.30;99.90;;;;;;5081168;28;20051;-74
2023/05/30 03:24:21;;;;;;;26.25;14.05;;;18.40;99.90;;;;;;5081062;28;20035;-75
2023/05/30 03:27:26;;;;;;;18.25;13.15;;;18.20;99.90;;;;;;5080931;28;20524;-76
2023/05/30 03:30:30;;;;;;;23.20;13.07;;;18.20;99.90;;;;;;5080734;28;20055;-75
2023/05/30 03:33:38;;;;;;;26.67;13.90;;;18.10;99.90;;;;;;5081071;28;20143;-75
2023/05/30 03:36:42;;;;;;;20.63;13.80;;;18.00;99.90;;;;;;5080851;28;20058;-75
2023/05/30 03:39:47;;;;;;;22.63;13.05;;;17.90;99.90;;;;;;5080887;28;20047;-76
2023/05/30 03:42:51;;;;;;;24.00;13.63;;;18.00;99.90;;;;;;5093186;28;20043;-75
2023/05/30 03:45:55;;;;;;;31.60;13.57;;;18.00;99.90;;;;;;5092381;28;20043;-78
2023/05/30 03:48:58;;;;;;;28.92;13.57;;;18.00;99.90;;;;;;5092988;28;20298;-77
2023/05/30 03:52:03;;;;;;;21.80;13.20;;;18.00;99.90;;;;;;5080699;28;20519;-75
2023/05/30 03:55:07;;;;;;;25.20;13.68;;;18.00;99.90;;;;;;5080579;28;20043;-75
2023/05/30 03:58:11;;;;;;;24.40;12.82;;;18.00;99.90;;;;;;5080483;28;20039;-75
2023/05/30 04:01:15;;;;;;;20.52;13.70;;;18.10;99.90;;;;;;5080586;28;20046;-75
2023/05/30 04:04:19;;;;;;;22.70;13.48;;;18.10;99.90;;;;;;5092893;28;20067;-74
2023/05/30 04:07:24;;;;;;;24.38;13.20;;;18.10;99.90;;;;;;5079950;28;20047;-74
2023/05/30 04:10:28;;;;;;;31.10;14.35;;;18.00;99.90;;;;;;5080604;28;20047;-75
2023/05/30 04:13:32;;;;;;;23.08;13.65;;;18.10;99.90;;;;;;5092643;28;20039;-76
2023/05/30 04:16:36;;;;;;;20.42;13.30;;;18.10;99.90;;;;;;5080230;28;20042;-75
2023/05/30 04:19:40;;;;;;;24.80;13.32;;;18.30;99.90;;;;;;5080228;28;20388;-76
2023/05/30 04:22:44;;;;;;;18.77;12.85;;;18.50;99.90;;;;;;5080312;28;20536;-76
2023/05/30 04:25:49;;;;;;;24.63;12.73;;;18.40;99.90;;;;;;5079704;28;20117;-77
2023/05/30 04:28:56;;;;;;;24.08;14.07;;;18.50;99.90;;;;;;5080037;28;20201;-78
2023/05/30 04:32:00;;;;;;;26.67;14.43;;;18.60;99.90;;;;;;5079919;28;20070;-74
2023/05/30 04:35:05;;;;;;;25.98;13.57;;;18.70;99.90;;;;;;5079685;28;20039;-76
2023/05/30 04:38:10;;;;;;;22.63;13.05;;;18.90;99.90;;;;;;5079602;28;20043;-75
2023/05/30 04:41:19;;;;;;;31.42;13.35;;;19.20;99.90;;;;;;5079686;28;20050;-74
2023/05/30 04:44:23;;;;;;;22.42;14.50;;;19.60;99.90;;;;;;5091940;28;20046;-76
2023/05/30 04:47:28;;;;;;;21.70;14.90;;;19.80;99.90;;;;;;5079300;28;20495;-75
2023/05/30 04:50:32;;;;;;;29.25;15.13;;;20.30;99.90;;;;;;5079412;28;20055;-77
2023/05/30 04:53:36;;;;;;;28.08;14.80;;;20.60;99.90;;;;;;5092019;28;20043;-75
2023/05/30 04:56:40;;;;;;;21.95;12.50;;;20.80;99.90;;;;;;5079378;28;20043;-74
2023/05/30 04:59:44;;;;;;;25.15;13.45;;;20.90;99.90;;;;;;5091798;28;20406;-76
2023/05/30 05:02:48;;;;;;;28.65;14.27;;;21.20;99.90;;;;;;5078822;28;20043;-76
2023/05/30 05:05:52;;;;;;;18.08;13.98;;;21.30;99.90;;;;;;5092173;28;20047;-77
2023/05/30 05:08:56;;;;;;;27.15;14.07;;;21.40;99.80;;;;;;5091308;28;20059;-74
2023/05/30 05:12:03;;;;;;;25.63;15.73;;;21.60;99.40;;;;;;5091536;28;20055;-76
2023/05/30 05:15:07;;;;;;;33.13;17.98;;;21.70;99.30;;;;;;5091289;28;20408;-76
2023/05/30 05:18:12;;;;;;;29.10;17.58;;;21.90;99.00;;;;;;5091645;28;20051;-68
2023/05/30 05:21:15;;;;;;;27.30;17.48;;;22.20;98.90;;;;;;5091481;28;20050;-70
2023/05/30 05:24:19;;;;;;;36.60;21.58;;;22.50;98.40;;;;;;5091389;28;20671;-68
2023/05/30 05:27:25;;;;;;;32.08;19.48;;;22.70;97.60;;;;;;5091452;28;20043;-68
2023/05/30 05:30:29;;;;;;;35.15;19.33;;;22.90;97.70;;;;;;5091035;28;20384;-68
2023/05/30 05:33:33;;;;;;;33.38;20.27;;;23.10;97.20;;;;;;5091319;28;20043;-70
2023/05/30 05:36:37;;;;;;;31.80;18.65;;;23.30;97.00;;;;;;5091296;28;20059;-70
2023/05/30 05:39:41;;;;;;;28.15;19.08;;;23.40;96.30;;;;;;5091053;28;20043;-70
2023/05/30 05:42:44;;;;;;;36.90;19.92;;;23.40;96.30;;;;;;5091349;28;20047;-69
2023/05/30 05:45:50;;;;;;;34.22;20.17;;;23.50;96.50;;;;;;5090984;28;20038;-68
2023/05/30 05:48:54;;;;;;;40.30;19.83;;;23.80;96.50;;;;;;5091042;28;20047;-68
2023/05/30 05:51:59;;;;;;;38.63;22.00;;;24.20;96.30;;;;;;5091012;28;20502;-69
2023/05/30 05:55:03;;;;;;;41.08;21.45;;;24.30;95.90;;;;;;5090793;28;20523;-69
2023/05/30 05:58:07;;;;;;;38.47;20.08;;;24.20;96.00;;;;;;5078506;28;20074;-68
2023/05/30 06:01:11;;;;;;;33.58;21.08;;;24.20;96.30;;;;;;5090825;28;20039;-68
2023/05/30 06:04:15;;;;;;;43.40;20.38;;;24.40;95.50;;;;;;5090689;28;20494;-68
2023/05/30 06:07:18;;;;;;;41.13;21.02;;;24.50;95.30;;;;;;5090906;28;20483;-68
2023/05/30 06:10:22;;;;;;;25.30;18.02;;;24.70;95.20;;;;;;5078301;28;20059;-68
2023/05/30 06:13:26;;;;;;;35.70;17.60;;;24.80;94.60;;;;;;5090828;28;20329;-69
2023/05/30 06:16:30;;;;;;;28.95;17.00;;;25.10;94.60;;;;;;5093156;28;20055;-69
2023/05/30 06:19:34;;;;;;;31.40;16.50;;;25.30;93.30;;;;;;5093087;28;20114;-69
2023/05/30 06:22:38;;;;;;;34.55;17.92;;;25.30;93.40;;;;;;5092878;28;20099;-70
2023/05/30 06:25:42;;;;;;;26.30;18.45;;;25.30;93.60;;;;;;5093152;28;20294;-69
2023/05/30 06:28:50;;;;;;;32.70;19.75;;;25.30;93.90;;;;;;5093280;28;20395;-69
2023/05/30 06:31:54;;;;;;;30.20;17.15;;;25.30;93.90;;;;;;5094082;28;20071;-70
2023/05/30 06:34:58;;;;;;;32.72;18.05;;;25.60;94.40;;;;;;5094362;28;20039;-70
2023/05/30 06:38:02;;;;;;;28.40;17.42;;;25.80;92.90;;;;;;5094623;28;20047;-69
2023/05/30 06:41:05;;;;;;;26.30;16.83;;;26.00;93.20;;;;;;5082040;28;20392;-70
2023/05/30 06:44:10;;;;;;;27.35;17.55;;;26.00;91.90;;;;;;5094646;28;20047;-69
2023/05/30 06:47:14;;;;;;;21.88;14.00;;;25.90;92.30;;;;;;5094531;28;20047;-69
2023/05/30 06:50:18;;;;;;;22.13;14.07;;;26.20;91.40;;;;;;5094193;28;20051;-68
2023/05/30 06:53:22;;;;;;;26.73;15.82;;;26.40;91.20;;;;;;5094347;28;20094;-69
2023/05/30 06:56:26;;;;;;;28.48;16.48;;;26.60;91.50;;;;;;5081657;28;20051;-70
2023/05/30 06:59:33;;;;;;;29.33;15.45;;;26.70;91.50;;;;;;5094105;28;20063;-70
2023/05/30 07:02:37;;;;;;;24.50;14.98;;;26.80;91.50;;;;;;5094085;28;20051;-70
2023/05/30 07:05:41;;;;;;;17.83;13.73;;;27.10;90.80;;;;;;5094127;28;20067;-70
2023/05/30 07:08:45;;;;;;;23.65;15.30;;;27.40;90.10;;;;;;5092689;28;20046;-69
2023/05/30 07:11:51;;;;;;;29.73;16.25;;;27.40;90.00;;;;;;5092711;28;20070;-69
2023/05/30 07:14:55;;;;;;;26.50;14.32;;;27.30;90.00;;;;;;5092927;28;20047;-69
2023/05/30 07:18:00;;;;;;;23.48;13.13;;;27.40;90.30;;;;;;5093138;28;20387;-69
2023/05/30 07:21:05;;;;;;;27.45;13.82;;;27.60;90.10;;;;;;5092820;28;20496;-68
2023/05/30 07:24:09;;;;;;;26.48;15.23;;;27.70;89.40;;;;;;5092632;28;20047;-69
2023/05/30 07:27:13;;;;;;;18.35;11.02;;;27.70;88.80;;;;;;5092835;28;20047;-69
2023/05/30 07:30:17;;;;;;;20.58;12.40;;;27.70;86.10;;;;;;5092098;28;20407;-69
2023/05/30 07:33:21;;;;;;;20.90;11.82;;;27.80;86.80;;;;;;5079704;28;20047;-71
2023/05/30 07:36:25;;;;;;;11.90;8.75;;;28.00;87.10;;;;;;5092034;28;20058;-71
2023/05/30 07:39:29;;;;;;;14.75;8.82;;;28.00;83.20;;;;;;5092051;28;20039;-71
2023/05/30 07:42:38;;;;;;;17.60;8.13;;;28.10;84.80;;;;;;5092252;28;20043;-70
2023/05/30 07:45:42;;;;;;;11.20;7.15;;;28.10;81.00;;;;;;5092136;28;20035;-69
2023/05/30 07:48:46;;;;;;;13.00;8.38;;;28.20;80.40;;;;;;5092214;28;20075;-69
2023/05/30 07:51:50;;;;;;;13.07;7.18;;;28.40;82.20;;;;;;5091885;28;20047;-70
2023/05/30 07:54:54;;;;;;;11.45;6.60;;;28.30;75.90;;;;;;5092587;28;20039;-71
2023/05/30 07:57:59;;;;;;;8.18;6.60;;;28.30;75.80;;;;;;5092278;28;20059;-70
2023/05/30 08:01:02;;;;;;;9.77;6.05;;;28.30;76.00;;;;;;5092255;28;20051;-71
2023/05/30 08:04:22;;;;;;;7.82;6.28;;;28.10;75.80;;;;;;5092156;28;20102;-70
2023/05/30 08:07:26;;;;;;;9.82;6.78;;;27.90;76.70;;;;;;5051849;28;1146475;-70
2023/05/30 08:10:30;;;;;;;8.80;7.03;;;27.70;76.30;;;;;;5080197;28;20047;-70
2023/05/30 08:13:38;;;;;;;11.80;6.53;;;27.90;77.80;;;;;;5092861;28;20047;-70
2023/05/30 08:16:42;;;;;;;9.68;6.03;;;27.90;76.90;;;;;;5093272;28;20043;-71
2023/05/30 08:19:46;;;;;;;9.25;5.97;;;28.00;76.90;;;;;;5092785;28;20431;-71
2023/05/30 08:22:50;;;;;;;13.65;7.13;;;28.00;77.50;;;;;;5092297;28;20040;-69
2023/05/30 08:25:55;;;;;;;10.68;6.88;;;28.10;78.20;;;;;;5092461;28;20043;-70
2023/05/30 08:28:59;;;;;;;10.18;6.68;;;28.20;78.10;;;;;;5092392;28;20416;-70
2023/05/30 08:32:03;;;;;;;11.00;6.80;;;28.10;78.20;;;;;;5092326;28;20399;-69
2023/05/30 08:35:08;;;;;;;10.80;6.38;;;28.00;78.00;;;;;;5092311;28;20043;-69
2023/05/30 08:38:12;;;;;;;8.98;6.05;;;28.20;76.50;;;;;;5079218;28;20059;-70
2023/05/30 08:41:17;;;;;;;9.35;5.63;;;28.20;76.40;;;;;;5092543;28;20051;-69
2023/05/30 08:44:21;;;;;;;7.30;5.80;;;28.20;75.20;;;;;;5091951;28;20399;-71
2023/05/30 08:47:25;;;;;;;8.15;5.30;;;28.10;76.10;;;;;;5092245;28;20392;-70
2023/05/30 08:50:30;;;;;;;9.68;5.40;;;28.30;74.80;;;;;;5092105;28;20510;-71
2023/05/30 08:53:41;;;;;;;10.13;5.78;;;28.30;74.10;;;;;;5091939;28;20047;-70
2023/05/30 08:56:56;;;;;;;;;;;28.30;74.80;;;;;;5092569;28;20395;-70
2023/05/30 09:00:05;;;;;;;8.82;4.93;;;28.30;74.70;;;;;;5091765;28;20009;-71
2023/05/30 09:03:09;;;;;;;10.27;5.10;;;28.30;71.70;;;;;;5091368;28;20047;-70
2023/05/30 09:06:16;;;;;;;10.18;5.70;;;28.10;72.40;;;;;;5091878;28;20039;-69
2023/05/30 09:09:23;;;;;;;7.65;5.25;;;28.10;72.50;;;;;;5051305;28;20056;-70
2023/05/30 09:12:27;;;;;;;7.65;5.65;;;28.30;73.30;;;;;;5051107;28;20428;-69
2023/05/30 09:15:31;;;;;;;7.28;5.78;;;28.40;74.00;;;;;;5051347;28;20044;-71
2023/05/30 09:18:35;;;;;;;10.07;5.88;;;28.50;73.80;;;;;;5051262;28;20043;-69
2023/05/30 09:21:40;;;;;;;6.30;5.65;;;28.50;73.80;;;;;;5051095;28;20037;-71
2023/05/30 09:25:02;;;;;;;10.18;6.43;;;28.30;73.70;;;;;;5051469;28;20048;-71
2023/05/30 09:28:06;;;;;;;11.50;6.30;;;28.40;74.10;;;;;;5051031;28;20048;-70
2023/05/30 09:31:10;;;;;;;9.25;5.47;;;28.60;74.50;;;;;;5051241;28;20048;-70
2023/05/30 09:34:18;;;;;;;7.30;5.30;;;28.60;73.00;;;;;;5051045;28;20044;-70
2023/05/30 09:37:23;;;;;;;10.25;5.40;;;28.70;74.00;;;;;;5050762;28;20234;-69
2023/05/30 09:40:30;;;;;;;8.98;5.32;;;28.70;73.80;;;;;;5050229;28;20543;-70
2023/05/30 09:43:35;;;;;;;7.07;4.55;;;28.70;73.10;;;;;;5050967;28;20044;-69
2023/05/30 09:46:39;;;;;;;8.63;5.68;;;28.70;73.90;;;;;;5051099;28;20043;-70
2023/05/30 09:49:42;;;;;;;7.95;6.00;;;28.70;73.50;;;;;;5050740;28;20036;-70
2023/05/30 09:52:55;;;;;;;10.57;5.43;;;28.60;72.90;;;;;;5050566;28;20052;-69
2023/05/30 09:56:01;;;;;;;9.02;5.45;;;28.60;73.80;;;;;;5049659;28;20052;-67
2023/05/30 09:59:11;;;;;;;6.95;5.50;;;28.60;73.50;;;;;;5050777;28;20036;-70
2023/05/30 10:02:24;;;;;;;6.13;4.75;;;28.70;73.00;;;;;;5050685;28;20046;-67
2023/05/30 10:05:29;;;;;;;11.32;5.90;;;28.90;73.70;;;;;;5050649;28;20048;-68
2023/05/30 10:08:33;;;;;;;6.30;5.22;;;29.00;74.40;;;;;;5088031;28;20169;-67
2023/05/30 10:11:38;;;;;;;13.82;6.30;;;29.10;74.20;;;;;;5090729;28;20059;-67
2023/05/30 10:14:43;;;;;;;12.93;6.80;;;29.10;76.30;;;;;;5078443;28;20490;-69
2023/05/30 10:17:58;;;;;;;9.88;7.20;;;29.10;76.10;;;;;;5090920;28;20047;-68
2023/05/30 10:21:03;;;;;;;12.50;7.38;;;29.10;76.60;;;;;;5091116;28;20040;-68
2023/05/30 10:24:10;;;;;;;11.52;7.38;;;29.10;77.00;;;;;;5088848;28;20433;-68
2023/05/30 10:27:27;;;;;;;19.77;7.97;;;29.10;77.40;;;;;;5089759;28;20047;-69
2023/05/30 10:30:32;;;;;;;11.48;7.15;;;28.90;78.10;;;;;;5088956;28;20050;-67
2023/05/30 10:33:38;;;;;;;12.77;7.72;;;28.70;77.60;;;;;;5090180;28;20070;-67
2023/05/30 10:36:43;;;;;;;12.07;7.05;;;28.70;78.50;;;;;;5090767;28;20043;-66
2023/05/30 10:40:13;;;;;;;9.00;6.95;;;28.70;79.00;;;;;;5090575;28;20050;-67
2023/05/30 10:43:38;;;;;;;11.18;6.78;;;28.70;78.90;;;;;;5090658;28;20047;-67
2023/05/30 10:47:10;;;;;;;8.18;6.05;;;28.80;78.50;;;;;;5078190;28;20059;-71
2023/05/30 10:50:22;;;;;;;11.77;6.85;;;28.90;78.60;;;;;;5090357;28;20043;-68
2023/05/30 10:53:26;;;;;;;13.85;6.50;;;29.00;78.50;;;;;;5089225;28;20051;-69
2023/05/30 10:56:40;;;;;;;11.48;7.03;;;29.00;78.60;;;;;;5076537;28;20043;-68
2023/05/30 10:59:44;;;;;;;10.40;6.88;;;29.10;79.10;;;;;;5089545;28;20047;-68
2023/05/30 11:02:53;;;;;;;8.75;6.03;;;29.00;79.20;;;;;;5093663;28;20047;-69
2023/05/30 11:05:57;;;;;;;10.48;6.40;;;29.10;78.10;;;;;;5081609;28;20043;-69
2023/05/30 11:09:11;;;;;;;13.80;6.22;;;29.00;78.30;;;;;;5094004;28;20055;-68
2023/05/30 11:12:24;;;;;;;9.30;6.60;;;28.80;79.40;;;;;;5093015;28;20051;-68
2023/05/30 11:15:33;;;;;;;10.75;7.32;;;28.60;79.00;;;;;;5094018;28;20289;-69
2023/05/30 11:18:39;;;;;;;18.48;8.02;;;28.40;79.50;;;;;;5094911;28;20050;-68
2023/05/30 11:22:01;;;;;;;10.32;6.43;;;28.30;80.90;;;;;;5094050;28;20055;-69
2023/05/30 11:25:23;;;;;;;11.18;6.07;;;27.90;80.80;;;;;;5093792;28;20047;-69
2023/05/30 11:28:35;;;;;;;10.10;4.90;;;27.10;80.30;;;;;;5094079;28;20054;-68
2023/05/30 11:31:40;;;;;;;8.10;4.35;;;25.80;83.00;;;;;;5093612;28;20051;-68
2023/05/30 11:34:44;;;;;;;6.63;3.55;;;25.00;84.20;;;;;;5081161;28;20039;-68
2023/05/30 11:37:48;;;;;;;7.03;3.60;;;24.60;85.10;;;;;;5093887;28;20513;-67
2023/05/30 11:40:53;;;;;;;7.28;3.78;;;24.30;85.40;;;;;;5093329;28;20506;-69
2023/05/30 11:43:56;;;;;;;6.20;3.28;;;24.10;85.30;;;;;;5093324;28;20051;-66
2023/05/30 11:47:07;;;;;;;8.13;3.55;;;23.90;86.40;;;;;;5093537;28;20380;-68
2023/05/30 11:50:10;;;;;;;14.45;4.53;;;23.70;86.60;;;;;;5093474;28;20157;-68
2023/05/30 11:53:17;;;;;;;7.65;3.63;;;23.50;87.30;;;;;;5092935;28;20051;-68
2023/05/30 11:56:21;;;;;;;7.25;3.88;;;23.50;88.30;;;;;;5093204;28;20035;-68
2023/05/30 11:59:26;;;;;;;9.65;3.47;;;23.60;88.20;;;;;;5080721;28;20043;-67
2023/05/30 12:02:31;;;;;;;7.03;3.60;;;23.70;89.20;;;;;;5093076;28;20039;-69
2023/05/30 12:05:35;;;;;;;7.88;3.17;;;23.90;90.40;;;;;;5080982;28;20502;-70
2023/05/30 12:08:43;;;;;;;10.15;3.80;;;23.90;89.60;;;;;;5092998;28;20047;-69
2023/05/30 12:11:59;;;;;;;10.13;3.83;;;23.40;90.70;;;;;;5091738;28;20054;-69
2023/05/30 12:15:04;;;;;;;7.93;4.18;;;23.10;91.10;;;;;;5092552;28;20047;-68
2023/05/30 12:18:11;;;;;;;7.88;3.83;;;23.10;92.20;;;;;;5080483;28;20039;-69
2023/05/30 12:21:15;;;;;;;8.05;4.40;;;22.80;93.30;;;;;;5092884;28;20039;-69
2023/05/30 12:24:25;;;;;;;6.75;3.72;;;22.50;93.50;;;;;;5092603;28;20648;-68
2023/05/30 12:27:28;;;;;;;8.85;4.18;;;22.30;93.60;;;;;;5092364;28;20038;-69
2023/05/30 12:30:36;;;;;;;12.45;4.43;;;22.20;93.90;;;;;;5092674;28;20039;-68
2023/05/30 12:33:40;;;;;;;7.85;4.60;;;22.30;94.00;;;;;;5092418;28;20047;-69
2023/05/30 12:36:46;;;;;;;14.15;5.07;;;22.40;93.90;;;;;;5092562;28;20043;-67
2023/05/30 12:39:52;;;;;;;5.97;4.00;;;22.50;94.20;;;;;;5068093;28;20066;-67
2023/05/30 12:42:56;;;;;;;6.72;4.30;;;22.70;93.70;;;;;;5092191;28;20040;-68
2023/05/30 12:46:12;;;;;;;10.35;4.45;;;22.70;93.30;;;;;;5092591;28;20404;-68
2023/05/30 12:49:16;;;;;;;6.82;4.40;;;22.60;93.30;;;;;;5092356;28;20047;-68
2023/05/30 12:52:22;;;;;;;8.52;4.78;;;22.80;93.20;;;;;;5079468;28;20063;-68
2023/05/30 12:55:26;;;;;;;7.43;4.53;;;23.10;93.40;;;;;;5092270;28;20047;-68
2023/05/30 12:58:30;;;;;;;13.48;5.50;;;23.20;94.00;;;;;;5092085;28;20047;-68
2023/05/30 13:01:34;;;;;;;6.55;4.93;;;23.40;93.00;;;;;;5091923;28;20039;-69
2023/05/30 13:04:39;;;;;;;10.82;4.75;;;23.60;92.90;;;;;;5092318;28;20499;-68
2023/05/30 13:07:43;;;;;;;11.25;4.20;;;23.70;92.10;;;;;;5091432;28;20403;-69
2023/05/30 13:10:48;;;;;;;17.10;4.78;;;23.80;90.50;;;;;;5091901;28;20570;-68
2023/05/30 13:13:52;;;;;;;6.40;4.82;;;23.90;91.70;;;;;;5091568;28;20051;-68
2023/05/30 13:16:57;;;;;;;6.32;4.40;;;24.10;90.80;;;;;;5091612;28;20230;-69
2023/05/30 13:20:00;;;;;;;7.00;4.57;;;24.10;88.90;;;;;;5091664;28;20387;-68
2023/05/30 13:23:04;;;;;;;9.02;4.88;;;24.30;90.60;;;;;;5091170;28;20050;-69
2023/05/30 13:26:11;;;;;;;5.63;4.43;;;24.40;90.30;;;;;;5091482;28;20039;-68
2023/05/30 13:29:14;;;;;;;7.82;4.68;;;24.50;89.40;;;;;;5091445;28;20055;-69
2023/05/30 13:32:18;;;;;;;6.07;4.05;;;24.60;88.00;;;;;;5091199;28;20059;-72
2023/05/30 13:35:22;;;;;;;5.75;4.35;;;24.70;87.30;;;;;;5092155;28;20384;-71
2023/05/30 13:38:28;;;;;;;5.05;3.85;;;24.80;85.70;;;;;;5091703;28;20047;-70
2023/05/30 13:41:32;;;;;;;7.43;4.00;;;24.80;85.10;;;;;;5091394;28;20411;-70
2023/05/30 13:44:36;;;;;;;6.13;3.72;;;24.80;84.40;;;;;;5079136;28;20467;-73
2023/05/30 13:47:39;;;;;;;6.30;4.00;;;24.90;85.20;;;;;;5078858;28;20039;-72
2023/05/30 13:50:44;;;;;;;5.25;3.75;;;24.90;84.90;;;;;;5090905;28;20044;-70
2023/05/30 13:53:50;;;;;;;5.85;3.78;;;25.00;84.30;;;;;;5090855;28;20055;-69
2023/05/30 13:56:54;;;;;;;6.45;3.85;;;25.00;82.20;;;;;;5090954;28;20387;-68
2023/05/30 13:59:58;;;;;;;6.65;4.20;;;25.00;82.20;;;;;;5089167;28;20495;-71
2023/05/30 14:03:03;;;;;;;7.22;4.00;;;25.10;82.00;;;;;;5090535;28;20043;-70
2023/05/30 14:06:07;;;;;;;5.15;4.03;;;25.10;82.60;;;;;;5090880;28;20043;-68
2023/05/30 14:09:12;;;;;;;5.43;4.15;;;25.10;81.90;;;;;;5051021;28;20064;-71
2023/05/30 14:12:16;;;;;;;7.30;4.65;;;25.20;81.90;;;;;;5049591;28;20079;-71
2023/05/30 14:15:21;;;;;;;8.52;4.20;;;25.20;82.30;;;;;;5050835;28;20040;-72
2023/05/30 14:18:25;;;;;;;14.98;3.83;;;25.20;82.20;;;;;;5050359;28;20048;-69
2023/05/30 14:21:29;;;;;;;5.72;4.20;;;25.20;81.90;;;;;;5050223;28;20060;-68
2023/05/30 14:24:33;;;;;;;5.03;4.22;;;25.30;81.80;;;;;;5050637;28;20071;-68
2023/05/30 14:27:37;;;;;;;5.85;4.60;;;25.30;81.60;;;;;;5050430;28;20055;-70
2023/05/30 14:30:41;;;;;;;5.60;3.80;;;25.40;82.40;;;;;;5049510;28;20043;-68
2023/05/30 14:33:45;;;;;;;4.53;3.50;;;25.50;82.40;;;;;;5050066;28;20052;-68
2023/05/30 14:36:49;;;;;;;9.30;4.07;;;25.60;82.30;;;;;;5053827;28;20064;-66
2023/05/30 14:39:53;;;;;;;9.18;4.60;;;25.70;82.30;;;;;;5054126;28;20500;-68
2023/05/30 14:42:57;;;;;;;6.43;4.60;;;25.70;81.90;;;;;;5054501;28;20047;-68
2023/05/30 14:46:01;;;;;;;4.75;4.25;;;25.70;81.50;;;;;;5054386;28;20052;-69
2023/05/30 14:49:06;;;;;;;13.52;5.05;;;25.70;81.50;;;;;;5054145;28;20401;-69
2023/05/30 14:52:11;;;;;;;14.90;6.13;;;25.70;82.10;;;;;;5053895;28;20060;-72
2023/05/30 14:55:15;;;;;;;12.73;5.10;;;25.70;82.70;;;;;;5054254;28;20051;-72
2023/05/30 14:58:20;;;;;;;7.40;4.50;;;25.60;83.40;;;;;;5054545;28;20044;-71
2023/05/30 15:01:23;;;;;;;8.32;5.70;;;25.50;84.80;;;;;;5054516;28;20044;-70
2023/05/30 15:04:27;;;;;;;15.70;7.43;;;25.30;86.30;;;;;;5053635;28;20044;-69
2023/05/30 15:07:31;;;;;;;10.77;6.20;;;25.10;88.90;;;;;;5074089;28;20055;-70
2023/05/30 15:10:35;;;;;;;10.98;5.85;;;24.90;89.60;;;;;;5093703;28;20498;-69
2023/05/30 15:13:40;;;;;;;9.70;5.80;;;24.70;90.00;;;;;;5093733;28;20055;-69
2023/05/30 15:16:44;;;;;;;12.55;5.25;;;24.60;90.20;;;;;;5093728;28;20043;-71
2023/05/30 15:19:48;;;;;;;10.80;5.50;;;24.50;89.00;;;;;;5093860;28;20039;-72
2023/05/30 15:22:52;;;;;;;10.98;6.18;;;24.40;89.60;;;;;;5094120;28;20071;-71
2023/05/30 15:25:56;;;;;;;7.50;4.68;;;24.30;88.50;;;;;;5093655;28;20395;-71
2023/05/30 15:29:00;;;;;;;12.60;5.28;;;24.30;87.80;;;;;;5093323;28;20039;-73
2023/05/30 15:32:04;;;;;;;8.75;4.90;;;24.20;89.30;;;;;;5093408;28;20055;-70
2023/05/30 15:35:08;;;;;;;10.20;5.05;;;24.00;90.00;;;;;;5093612;28;20387;-69
2023/05/30 15:38:12;;;;;;;9.07;4.85;;;23.80;90.60;;;;;;5093419;28;20051;-72
2023/05/30 15:41:16;;;;;;;18.77;5.70;;;23.50;90.20;;;;;;5093646;28;20059;-71
2023/05/30 15:44:20;;;;;;;14.63;6.13;;;23.20;91.60;;;;;;5093264;28;20423;-70
2023/05/30 15:47:24;;;;;;;11.60;5.40;;;22.90;93.90;;;;;;5092991;28;20046;-68
2023/05/30 15:50:28;;;;;;;11.43;5.45;;;22.70;94.50;;;;;;5093145;28;20047;-67
2023/05/30 15:53:32;;;;;;;9.82;5.13;;;22.60;95.20;;;;;;5093218;28;20607;-69